Time;durP1;ratioP1;P1;durP2;ratioP2;P2;SDS_P1;SDS_P2;PMS_P1;PMS_P2;Temp;Humidity;BMP_temperature;BMP_pressure;BME280_temperature;BME280_humidity;BME280_pressure;Samples;Min_cycle;Max_cycle;Signal;HPM_P1;HPM_P2
2022/06/15 00:01:59;;;;;;;3.00;1.83;;;19.10;49.30;;;;;;5019582;28;20213;-73
2022/06/15 00:04:26;;;;;;;1.65;1.45;;;19.10;49.40;;;;;;5036720;28;20045;-73
2022/06/15 00:06:52;;;;;;;2.80;1.73;;;19.00;49.30;;;;;;5025055;28;20262;-72
2022/06/15 00:09:18;;;;;;;4.72;1.90;;;19.00;49.50;;;;;;5019151;28;20033;-74
2022/06/15 00:11:45;;;;;;;2.53;2.05;;;19.00;49.60;;;;;;5021593;28;20055;-73
2022/06/15 00:14:23;;;;;;;3.30;1.60;;;19.00;49.70;;;;;;5037366;28;20067;-73
2022/06/15 00:16:49;;;;;;;3.30;1.98;;;18.90;49.80;;;;;;5033709;28;20044;-72
2022/06/15 00:19:16;;;;;;;2.28;1.58;;;18.90;49.70;;;;;;5041497;28;20024;-72
2022/06/15 00:21:42;;;;;;;9.05;2.50;;;18.80;49.60;;;;;;5036435;28;20036;-73
2022/06/15 00:24:08;;;;;;;3.35;1.58;;;18.80;49.80;;;;;;5037203;28;20033;-73
2022/06/15 00:26:34;;;;;;;3.65;1.60;;;18.80;49.80;;;;;;5015442;28;20032;-72
2022/06/15 00:29:00;;;;;;;2.85;1.50;;;18.70;49.80;;;;;;5025113;28;20025;-74
2022/06/15 00:31:26;;;;;;;5.63;1.73;;;18.70;49.80;;;;;;5036620;28;20033;-72
2022/06/15 00:33:52;;;;;;;2.22;1.60;;;18.70;49.90;;;;;;5013651;28;20036;-72
2022/06/15 00:36:21;;;;;;;2.70;1.40;;;18.60;49.80;;;;;;5016558;28;20029;-73
2022/06/15 00:38:50;;;;;;;3.75;1.50;;;18.60;49.90;;;;;;5028270;28;20025;-73
2022/06/15 00:41:28;;;;;;;3.10;1.77;;;18.60;50.00;;;;;;5032736;28;20354;-73
2022/06/15 00:44:01;;;;;;;3.55;2.15;;;18.60;50.10;;;;;;5028591;28;20617;-73
2022/06/15 00:46:33;;;;;;;1.85;1.58;;;18.50;50.00;;;;;;5034090;28;20357;-73
2022/06/15 00:49:10;;;;;;;2.85;1.33;;;18.50;50.00;;;;;;5027489;28;20554;-73
2022/06/15 00:51:37;;;;;;;1.55;1.45;;;18.40;49.90;;;;;;5020084;28;20037;-74
2022/06/15 00:54:04;;;;;;;2.95;1.90;;;18.40;50.00;;;;;;5041308;28;20021;-73
2022/06/15 00:56:31;;;;;;;4.18;1.90;;;18.40;50.10;;;;;;5039433;28;20037;-73
2022/06/15 00:59:03;;;;;;;4.93;1.92;;;18.40;50.20;;;;;;5035280;28;20025;-73
2022/06/15 01:01:29;;;;;;;3.15;1.50;;;18.30;50.10;;;;;;5028922;28;20154;-73
2022/06/15 01:03:57;;;;;;;3.67;1.63;;;18.30;50.10;;;;;;5018217;28;22043;-73
2022/06/15 01:06:46;;;;;;;2.65;1.73;;;18.20;50.10;;;;;;5017361;28;20029;-73
2022/06/15 01:09:26;;;;;;;2.88;1.85;;;18.20;50.30;;;;;;5016367;28;20432;-73
2022/06/15 01:12:08;;;;;;;2.90;1.75;;;18.20;50.30;;;;;;5027878;28;20029;-72
2022/06/15 01:15:03;;;;;;;3.33;1.50;;;18.10;50.10;;;;;;5013413;28;20029;-73
2022/06/15 01:17:48;;;;;;;2.33;1.60;;;18.00;50.20;;;;;;5036848;28;20024;-73
2022/06/15 01:21:03;;;;;;;2.15;1.30;;;18.00;50.10;;;;;;5038755;28;20024;-72
2022/06/15 01:23:32;;;;;;;2.15;1.60;;;18.00;50.30;;;;;;5003937;28;20037;-73
2022/06/15 01:26:21;;;;;;;2.97;1.55;;;17.90;50.10;;;;;;5021773;28;20025;-72
2022/06/15 01:28:55;;;;;;;2.35;1.50;;;17.90;50.30;;;;;;5040044;28;20043;-72
2022/06/15 01:31:32;;;;;;;3.03;1.60;;;17.90;50.30;;;;;;5038125;28;20029;-72
2022/06/15 01:34:18;;;;;;;2.75;1.58;;;17.80;50.30;;;;;;5024550;28;20029;-73
2022/06/15 01:37:02;;;;;;;2.15;1.60;;;17.80;50.40;;;;;;5020893;28;20049;-72
2022/06/15 01:39:45;;;;;;;3.65;1.80;;;17.80;50.50;;;;;;5024446;28;20733;-73
2022/06/15 01:42:49;;;;;;;2.15;1.50;;;17.70;50.50;;;;;;5028833;28;20021;-73
2022/06/15 01:45:21;;;;;;;3.10;1.73;;;17.60;50.40;;;;;;4960664;28;20491;-73
2022/06/15 01:47:50;;;;;;;3.65;1.60;;;17.70;50.50;;;;;;5015232;23;20057;-74
2022/06/15 01:50:21;;;;;;;2.38;1.67;;;17.70;50.60;;;;;;5024957;28;21066;-76
2022/06/15 01:53:10;;;;;;;3.42;1.85;;;17.60;50.60;;;;;;5025886;28;20373;-76
2022/06/15 01:55:42;;;;;;;2.63;1.63;;;17.60;50.80;;;;;;5025051;28;20469;-76
2022/06/15 01:58:12;;;;;;;5.70;2.35;;;17.50;50.60;;;;;;5018109;28;20033;-74
2022/06/15 02:00:41;;;;;;;2.83;1.65;;;17.50;50.80;;;;;;5006967;28;20052;-74
2022/06/15 02:03:33;;;;;;;3.05;2.13;;;17.50;50.80;;;;;;5009713;28;20402;-76
2022/06/15 02:06:19;;;;;;;3.17;1.33;;;17.40;50.90;;;;;;5007456;28;20026;-74
2022/06/15 02:08:56;;;;;;;2.45;1.67;;;17.40;50.90;;;;;;5007224;28;20121;-75
2022/06/15 02:11:38;;;;;;;2.67;1.60;;;17.40;50.90;;;;;;5006082;28;20509;-74
2022/06/15 02:14:24;;;;;;;3.67;1.83;;;17.30;50.80;;;;;;5006625;28;20057;-75
2022/06/15 02:16:58;;;;;;;3.28;1.70;;;17.30;50.80;;;;;;4990795;28;20071;-74
2022/06/15 02:19:33;;;;;;;4.07;2.42;;;17.20;50.70;;;;;;5002996;28;20033;-74
2022/06/15 02:22:05;;;;;;;2.78;1.50;;;17.20;50.80;;;;;;5005726;28;20390;-73
2022/06/15 02:24:33;;;;;;;3.55;1.65;;;17.20;50.90;;;;;;5010374;28;20079;-73
2022/06/15 02:27:01;;;;;;;2.03;1.80;;;17.10;50.70;;;;;;5001002;28;20033;-73
2022/06/15 02:29:32;;;;;;;2.38;1.50;;;17.10;50.80;;;;;;5028214;28;20488;-74
2022/06/15 02:32:00;;;;;;;2.75;1.98;;;17.10;50.90;;;;;;5036455;28;20029;-74
2022/06/15 02:34:27;;;;;;;3.13;1.80;;;17.00;50.70;;;;;;5027382;28;20037;-74
2022/06/15 02:36:55;;;;;;;7.70;2.65;;;17.00;50.90;;;;;;5013253;28;20039;-74
2022/06/15 02:39:24;;;;;;;2.20;1.60;;;16.90;50.80;;;;;;4992965;28;20041;-75
2022/06/15 02:42:02;;;;;;;3.25;1.50;;;16.90;50.80;;;;;;5023419;28;20385;-74
2022/06/15 02:44:32;;;;;;;3.47;2.15;;;16.90;51.00;;;;;;5028253;28;20037;-74
2022/06/15 02:47:00;;;;;;;2.65;2.45;;;16.90;51.00;;;;;;5009764;28;20072;-74
2022/06/15 02:49:26;;;;;;;3.08;1.52;;;16.80;50.90;;;;;;5023723;28;20033;-75
2022/06/15 02:51:58;;;;;;;3.38;1.70;;;16.80;51.20;;;;;;5023610;28;20021;-74
2022/06/15 02:54:38;;;;;;;2.77;1.80;;;16.80;51.10;;;;;;5023671;28;20044;-75
2022/06/15 02:57:11;;;;;;;3.67;1.63;;;16.70;51.00;;;;;;5023889;28;20037;-75
2022/06/15 02:59:37;;;;;;;2.72;1.40;;;16.70;50.90;;;;;;5026890;28;20022;-73
2022/06/15 03:02:05;;;;;;;2.55;1.50;;;16.70;51.10;;;;;;5023095;28;20392;-75
2022/06/15 03:04:33;;;;;;;2.50;1.50;;;16.70;51.10;;;;;;5023368;28;20053;-75
2022/06/15 03:06:59;;;;;;;2.25;1.63;;;16.70;51.20;;;;;;5008545;28;20103;-74
2022/06/15 03:09:26;;;;;;;3.97;2.40;;;16.60;51.10;;;;;;5023881;28;20432;-74
2022/06/15 03:11:53;;;;;;;4.07;1.75;;;16.50;51.10;;;;;;5019872;28;20281;-75
2022/06/15 03:14:32;;;;;;;3.70;1.80;;;16.60;51.30;;;;;;5018037;28;20034;-76
2022/06/15 03:16:59;;;;;;;5.07;1.60;;;16.50;51.20;;;;;;5014614;28;20030;-75
2022/06/15 03:19:32;;;;;;;3.75;1.90;;;16.50;51.30;;;;;;5022934;28;20067;-74
2022/06/15 03:22:02;;;;;;;3.85;1.70;;;16.40;51.20;;;;;;5023031;28;20021;-75
2022/06/15 03:24:30;;;;;;;1.88;1.67;;;16.40;51.30;;;;;;5022975;28;20148;-76
2022/06/15 03:26:56;;;;;;;2.00;1.42;;;16.40;51.30;;;;;;5024437;28;20445;-75
2022/06/15 03:29:25;;;;;;;2.60;1.70;;;16.40;51.40;;;;;;5022067;28;20033;-75
2022/06/15 03:31:55;;;;;;;3.58;1.58;;;16.40;51.50;;;;;;5024511;28;20021;-73
2022/06/15 03:34:25;;;;;;;3.75;1.40;;;16.30;51.40;;;;;;5006428;28;20123;-76
2022/06/15 03:36:51;;;;;;;3.65;1.70;;;16.30;51.40;;;;;;5020804;28;20072;-75
2022/06/15 03:39:17;;;;;;;6.47;1.83;;;16.30;51.40;;;;;;5023197;28;20017;-75
2022/06/15 03:41:45;;;;;;;2.63;1.65;;;16.20;51.40;;;;;;5014865;28;20043;-75
2022/06/15 03:44:11;;;;;;;5.13;2.45;;;16.20;51.40;;;;;;5036293;28;20084;-74
2022/06/15 03:46:40;;;;;;;2.10;1.35;;;16.20;51.60;;;;;;5035478;28;20144;-75
2022/06/15 03:49:12;;;;;;;3.92;1.70;;;16.10;51.40;;;;;;5030287;28;20045;-75
2022/06/15 03:51:39;;;;;;;2.42;1.38;;;16.10;51.50;;;;;;5030408;28;20040;-75
2022/06/15 03:54:06;;;;;;;3.85;2.08;;;16.10;51.50;;;;;;5026670;28;20388;-76
2022/06/15 03:56:44;;;;;;;2.40;1.77;;;16.10;51.60;;;;;;5027272;28;20037;-76
2022/06/15 03:59:14;;;;;;;1.90;1.40;;;16.10;51.80;;;;;;5023022;28;20120;-75
2022/06/15 04:01:43;;;;;;;3.17;1.50;;;16.00;51.50;;;;;;5024629;28;20057;-76
2022/06/15 04:04:09;;;;;;;2.80;1.48;;;16.10;51.80;;;;;;5006717;28;20065;-75
2022/06/15 04:06:36;;;;;;;3.58;1.75;;;16.00;51.60;;;;;;5017730;28;20040;-76
2022/06/15 04:09:05;;;;;;;2.65;1.60;;;16.00;51.70;;;;;;5026166;28;20087;-76
2022/06/15 04:14:30;;;;;;;1.48;1.00;;;16.00;51.70;;;;;;5021924;28;20131;-75
2022/06/15 04:17:31;;;;;;;2.97;1.58;;;16.00;51.70;;;;;;5019780;28;20044;-75
2022/06/15 04:20:36;;;;;;;2.65;1.80;;;16.00;51.60;;;;;;5022093;28;20072;-75
2022/06/15 04:23:23;;;;;;;1.63;1.23;;;15.90;51.50;;;;;;5020762;28;20034;-75
2022/06/15 04:25:54;;;;;;;1.75;1.17;;;15.90;51.40;;;;;;5017447;28;20034;-75
2022/06/15 04:28:26;;;;;;;4.63;1.35;;;15.90;51.50;;;;;;5023306;28;20033;-75
2022/06/15 04:30:55;;;;;;;1.35;1.17;;;15.80;51.40;;;;;;5021845;28;20029;-76
2022/06/15 04:33:28;;;;;;;1.73;1.30;;;15.90;51.70;;;;;;5022588;28;20040;-76
2022/06/15 04:35:58;;;;;;;2.45;1.15;;;15.80;51.50;;;;;;5019238;28;20045;-75
2022/06/15 04:38:25;;;;;;;2.45;1.27;;;15.80;51.50;;;;;;5022989;28;20500;-76
2022/06/15 04:40:59;;;;;;;6.88;2.70;;;15.80;51.60;;;;;;5022433;28;20041;-76
2022/06/15 04:43:26;;;;;;;1.25;1.15;;;15.70;51.50;;;;;;5021177;28;20442;-75
2022/06/15 04:45:52;;;;;;;1.95;1.30;;;15.70;51.50;;;;;;5024887;28;20630;-75
2022/06/15 04:48:22;;;;;;;2.97;2.03;;;15.70;51.60;;;;;;5020281;28;20095;-75
2022/06/15 04:50:49;;;;;;;1.88;1.10;;;15.70;51.60;;;;;;5017148;28;20324;-75
2022/06/15 04:53:15;;;;;;;1.85;1.13;;;15.70;51.60;;;;;;5022239;28;20622;-75
2022/06/15 04:55:42;;;;;;;3.10;2.50;;;15.70;51.60;;;;;;5015596;28;20044;-75
2022/06/15 04:58:08;;;;;;;1.92;1.00;;;15.70;51.60;;;;;;5020685;28;20033;-74
2022/06/15 05:00:41;;;;;;;3.35;1.20;;;15.70;51.70;;;;;;5007595;28;20037;-78
2022/06/15 05:03:09;;;;;;;1.57;1.30;;;15.70;51.70;;;;;;5019245;28;20033;-78
2022/06/15 05:05:39;;;;;;;1.75;1.30;;;15.70;51.70;;;;;;5036828;28;20278;-75
2022/06/15 05:08:07;;;;;;;2.47;1.73;;;15.80;51.90;;;;;;5040465;28;21066;-76
2022/06/15 05:10:34;;;;;;;1.52;1.40;;;15.70;51.70;;;;;;5021290;28;20120;-76
2022/06/15 05:13:02;;;;;;;3.15;1.20;;;15.70;51.70;;;;;;5021059;28;20028;-75
2022/06/15 05:15:30;;;;;;;2.03;1.60;;;15.80;51.90;;;;;;5024884;28;20045;-73
2022/06/15 05:18:04;;;;;;;4.03;1.98;;;15.80;51.90;;;;;;5039564;28;20164;-73
2022/06/15 05:20:36;;;;;;;3.13;1.38;;;15.80;52.10;;;;;;5027043;28;20468;-76
2022/06/15 05:23:02;;;;;;;1.42;1.20;;;15.80;52.00;;;;;;5009845;28;20033;-74
2022/06/15 05:25:48;;;;;;;1.52;1.23;;;15.80;52.00;;;;;;5023891;28;20484;-74
2022/06/15 05:28:21;;;;;;;2.80;1.53;;;15.80;51.90;;;;;;5005024;28;20051;-77
2022/06/15 05:30:47;;;;;;;2.00;1.52;;;15.80;52.00;;;;;;5009464;28;20309;-75
2022/06/15 05:33:16;;;;;;;1.63;1.50;;;15.80;52.00;;;;;;5020008;28;20112;-74
2022/06/15 05:35:42;;;;;;;2.83;1.52;;;15.80;52.10;;;;;;5005115;28;20142;-74
2022/06/15 05:38:09;;;;;;;1.73;1.60;;;15.80;52.10;;;;;;5017897;28;20029;-74
2022/06/15 05:40:37;;;;;;;2.88;2.05;;;15.90;52.30;;;;;;4990754;28;20429;-75
2022/06/15 05:43:03;;;;;;;3.53;1.83;;;15.90;52.40;;;;;;5038482;28;20428;-72
2022/06/15 05:45:31;;;;;;;4.72;1.60;;;15.90;52.40;;;;;;5004816;28;20515;-73
2022/06/15 05:48:00;;;;;;;4.05;1.88;;;16.00;52.60;;;;;;5021878;28;20041;-74
2022/06/15 05:50:38;;;;;;;4.00;2.25;;;16.00;52.70;;;;;;5020619;28;20139;-73
2022/06/15 05:53:12;;;;;;;5.82;2.60;;;16.00;52.90;;;;;;5017878;28;20033;-75
2022/06/15 05:55:38;;;;;;;2.72;2.50;;;16.10;53.40;;;;;;5019432;28;20033;-74
2022/06/15 05:58:05;;;;;;;10.05;3.40;;;16.10;53.80;;;;;;5037890;28;20036;-74
2022/06/15 06:00:32;;;;;;;5.95;2.78;;;16.10;54.10;;;;;;5036703;28;20040;-72
2022/06/15 06:02:58;;;;;;;5.90;2.90;;;16.20;54.60;;;;;;5031102;28;20467;-73
2022/06/15 06:05:24;;;;;;;3.17;2.40;;;16.30;55.10;;;;;;5037683;28;20068;-75
2022/06/15 06:07:50;;;;;;;3.80;2.83;;;16.30;55.30;;;;;;5019192;28;20068;-73
2022/06/15 06:10:16;;;;;;;4.00;2.90;;;16.40;55.70;;;;;;5038669;28;20028;-73
2022/06/15 06:12:42;;;;;;;4.60;3.15;;;16.50;56.20;;;;;;5024080;28;20036;-74
2022/06/15 06:15:08;;;;;;;3.60;3.00;;;16.50;56.20;;;;;;5037792;28;20041;-74
2022/06/15 06:17:34;;;;;;;4.55;2.97;;;16.70;56.70;;;;;;5036858;28;20059;-73
2022/06/15 06:20:00;;;;;;;9.90;4.00;;;16.80;57.00;;;;;;5030918;28;20498;-73
2022/06/15 06:22:26;;;;;;;5.75;3.58;;;16.90;57.10;;;;;;5025864;28;20168;-79
2022/06/15 06:24:53;;;;;;;7.20;3.85;;;17.10;57.40;;;;;;5016891;28;20029;-74
2022/06/15 06:27:20;;;;;;;5.25;3.20;;;17.20;57.60;;;;;;5030631;28;20120;-74
2022/06/15 06:29:46;;;;;;;4.53;3.28;;;17.40;57.90;;;;;;5021463;28;20033;-74
2022/06/15 06:32:13;;;;;;;5.13;3.53;;;17.70;58.00;;;;;;5036821;28;20025;-73
2022/06/15 06:34:39;;;;;;;4.38;3.83;;;18.10;58.00;;;;;;5037099;28;20299;-74
2022/06/15 06:37:07;;;;;;;6.45;4.15;;;18.60;57.90;;;;;;5029115;28;20092;-73
2022/06/15 06:39:34;;;;;;;7.35;4.65;;;19.20;57.60;;;;;;5037201;28;20537;-74
2022/06/15 06:42:02;;;;;;;5.20;4.07;;;19.80;57.30;;;;;;5030632;28;20035;-74
2022/06/15 06:44:34;;;;;;;5.88;4.40;;;20.40;56.60;;;;;;5002844;28;20055;-73
2022/06/15 06:47:00;;;;;;;6.85;4.10;;;20.90;56.10;;;;;;5033012;28;20052;-73
2022/06/15 06:49:26;;;;;;;9.25;4.20;;;21.40;56.00;;;;;;5020053;28;20548;-75
2022/06/15 06:51:52;;;;;;;6.63;4.85;;;21.80;55.80;;;;;;5018184;28;20068;-73
2022/06/15 06:54:20;;;;;;;5.38;3.75;;;22.10;55.50;;;;;;5021027;28;20048;-74
2022/06/15 06:56:47;;;;;;;4.43;4.00;;;22.50;55.50;;;;;;5037455;28;20639;-73
2022/06/15 06:59:15;;;;;;;5.43;4.03;;;22.90;55.30;;;;;;5040947;28;20082;-74
2022/06/15 07:01:43;;;;;;;6.05;3.65;;;23.30;55.20;;;;;;5039958;28;20465;-74
2022/06/15 07:04:11;;;;;;;5.63;3.70;;;23.70;55.10;;;;;;5038267;28;20035;-73
2022/06/15 07:06:38;;;;;;;5.95;3.70;;;24.00;54.80;;;;;;5039430;28;20021;-74
2022/06/15 07:09:04;;;;;;;7.18;4.07;;;24.30;54.60;;;;;;5037855;28;20594;-73
2022/06/15 07:11:30;;;;;;;5.18;3.50;;;24.70;54.60;;;;;;5040888;28;20029;-73
2022/06/15 07:13:56;;;;;;;5.93;3.90;;;25.00;54.40;;;;;;5040865;28;20055;-73
2022/06/15 07:16:23;;;;;;;6.13;3.50;;;25.30;53.90;;;;;;5023256;28;20037;-73
2022/06/15 07:18:49;;;;;;;7.78;3.97;;;25.50;53.40;;;;;;5020212;28;20793;-74
2022/06/15 07:21:24;;;;;;;6.53;3.47;;;25.60;53.20;;;;;;5039704;28;20051;-73
2022/06/15 07:23:55;;;;;;;6.65;3.78;;;25.50;53.30;;;;;;5004363;28;20485;-74
2022/06/15 07:26:32;;;;;;;5.80;3.22;;;25.50;53.50;;;;;;5025086;28;20102;-74
2022/06/15 07:28:58;;;;;;;6.63;3.70;;;25.50;53.40;;;;;;5034560;28;20025;-74
2022/06/15 07:31:27;;;;;;;7.13;3.20;;;25.60;53.50;;;;;;5035540;28;20167;-73
2022/06/15 07:33:53;;;;;;;5.53;3.13;;;25.90;52.90;;;;;;5017208;28;20582;-74
2022/06/15 07:36:20;;;;;;;6.13;3.40;;;26.30;51.80;;;;;;5034393;28;20495;-75
2022/06/15 07:38:46;;;;;;;5.80;3.50;;;26.80;50.90;;;;;;5024615;28;20025;-73
2022/06/15 07:41:11;;;;;;;8.45;4.30;;;27.20;49.90;;;;;;5037665;28;20029;-73
2022/06/15 07:43:39;;;;;;;10.07;3.83;;;27.50;49.10;;;;;;5038951;28;20246;-73
2022/06/15 07:46:06;;;;;;;5.30;2.83;;;27.70;48.50;;;;;;5022045;28;20045;-73
2022/06/15 07:51:25;;;;;;;9.93;4.00;;;28.30;47.60;;;;;;5040797;28;20368;-73
2022/06/15 07:53:51;;;;;;;6.60;3.85;;;28.80;46.70;;;;;;5041226;28;20033;-73
2022/06/15 07:56:17;;;;;;;5.47;3.08;;;29.10;46.10;;;;;;5039708;28;20032;-72
2022/06/15 07:58:43;;;;;;;8.00;3.60;;;29.40;45.50;;;;;;5022110;28;20030;-76
2022/06/15 08:01:09;;;;;;;8.25;3.88;;;29.70;45.00;;;;;;5022267;28;20037;-73
2022/06/15 08:03:35;;;;;;;8.75;3.42;;;29.70;44.70;;;;;;5035324;28;20024;-74
2022/06/15 08:06:01;;;;;;;5.85;3.30;;;29.40;45.10;;;;;;5036757;28;20472;-74
2022/06/15 08:08:27;;;;;;;11.18;5.20;;;28.90;45.70;;;;;;5040892;28;20032;-73
2022/06/15 08:10:53;;;;;;;6.45;3.65;;;28.40;46.20;;;;;;5020290;28;20037;-75
2022/06/15 08:13:20;;;;;;;4.57;3.35;;;28.00;47.00;;;;;;5033096;28;20025;-73
2022/06/15 08:15:48;;;;;;;6.50;3.10;;;27.70;47.70;;;;;;5040694;28;20063;-76
2022/06/15 08:18:19;;;;;;;5.53;3.38;;;27.40;48.00;;;;;;5038520;28;20071;-75
2022/06/15 08:20:49;;;;;;;4.88;3.25;;;27.20;48.20;;;;;;5038905;28;20025;-73
2022/06/15 08:23:21;;;;;;;5.00;3.58;;;27.10;48.50;;;;;;5039655;28;20021;-76
2022/06/15 08:25:54;;;;;;;8.85;4.10;;;26.90;48.50;;;;;;5019087;28;20036;-74
2022/06/15 08:28:24;;;;;;;10.30;3.70;;;26.90;48.60;;;;;;5035711;28;20470;-73
2022/06/15 08:30:51;;;;;;;5.90;3.63;;;26.80;48.60;;;;;;5037698;28;20037;-76
2022/06/15 08:33:17;;;;;;;4.07;3.28;;;26.70;48.50;;;;;;5038321;28;20029;-78
2022/06/15 08:35:42;;;;;;;6.90;4.00;;;26.70;48.30;;;;;;5020031;28;20573;-75
2022/06/15 08:38:12;;;;;;;6.22;3.67;;;26.60;48.10;;;;;;5035471;28;20041;-73
2022/06/15 08:40:56;;;;;;;5.95;3.40;;;26.60;47.90;;;;;;5036196;28;20388;-73
2022/06/15 08:43:52;;;;;;;7.72;2.95;;;26.60;47.60;;;;;;5036549;28;20032;-75
2022/06/15 08:46:24;;;;;;;5.13;2.80;;;26.60;47.60;;;;;;5040413;28;20053;-75
2022/06/15 08:49:01;;;;;;;4.20;2.42;;;26.60;47.50;;;;;;5015087;28;20036;-73
2022/06/15 08:51:36;;;;;;;4.88;2.85;;;26.60;47.20;;;;;;5036187;28;20210;-74
2022/06/15 08:54:20;;;;;;;4.72;3.03;;;26.70;46.70;;;;;;5030211;28;20033;-75
2022/06/15 08:57:18;;;;;;;4.43;2.22;;;26.70;46.10;;;;;;5001609;28;20123;-73
2022/06/15 08:59:53;;;;;;;4.50;2.08;;;26.70;45.70;;;;;;5029637;28;20354;-75
2022/06/15 09:02:31;;;;;;;3.85;2.17;;;26.70;45.70;;;;;;5028980;28;20361;-74
2022/06/15 09:05:08;;;;;;;9.48;2.60;;;26.80;45.30;;;;;;5033637;28;20612;-76
2022/06/15 09:08:31;;;;;;;5.50;2.40;;;26.80;44.90;;;;;;5033706;28;20476;-74
2022/06/15 09:11:03;;;;;;;6.30;3.13;;;26.90;44.70;;;;;;4939749;28;20426;-75
2022/06/15 09:14:10;;;;;;;7.13;3.00;;;27.00;44.80;;;;;;5011001;28;20164;-75
2022/06/15 09:16:56;;;;;;;4.00;2.47;;;27.00;44.30;;;;;;5032603;28;20536;-74
2022/06/15 09:19:31;;;;;;;5.47;3.03;;;27.10;44.40;;;;;;5026350;28;20063;-75
2022/06/15 09:22:08;;;;;;;6.88;3.38;;;27.10;44.40;;;;;;5015352;28;20120;-74
2022/06/15 09:25:01;;;;;;;9.18;3.40;;;27.20;44.40;;;;;;5036010;28;20037;-76
2022/06/15 09:27:37;;;;;;;6.15;3.05;;;27.30;44.30;;;;;;5036161;28;20476;-76
2022/06/15 09:30:11;;;;;;;5.15;3.70;;;27.30;44.30;;;;;;5018488;28;20032;-76
2022/06/15 09:32:43;;;;;;;5.93;3.47;;;27.40;44.40;;;;;;5036984;28;20508;-75
2022/06/15 09:35:16;;;;;;;6.88;3.95;;;27.40;45.10;;;;;;5026106;28;20139;-74
2022/06/15 09:37:46;;;;;;;5.80;3.30;;;27.50;44.70;;;;;;5013426;28;20108;-74
2022/06/15 09:40:14;;;;;;;6.22;3.72;;;27.60;44.80;;;;;;5012370;28;20021;-73
2022/06/15 09:42:50;;;;;;;5.50;3.20;;;27.70;44.80;;;;;;5033910;28;20121;-74
2022/06/15 09:45:39;;;;;;;5.55;3.20;;;27.70;44.50;;;;;;5031958;28;20032;-73
2022/06/15 09:48:25;;;;;;;3.97;2.60;;;27.80;44.10;;;;;;5030421;28;20069;-73
2022/06/15 09:51:14;;;;;;;5.38;2.60;;;27.80;43.80;;;;;;5029061;28;20047;-74
2022/06/15 09:53:40;;;;;;;7.55;2.85;;;27.80;43.50;;;;;;5030067;28;20063;-73
2022/06/15 09:56:10;;;;;;;6.68;2.35;;;27.90;43.60;;;;;;5031016;28;20519;-73
2022/06/15 09:58:44;;;;;;;10.00;3.03;;;27.90;43.40;;;;;;5015285;28;20029;-72
2022/06/15 10:01:12;;;;;;;7.53;2.58;;;27.90;43.30;;;;;;5035914;28;20147;-73
2022/06/15 10:03:44;;;;;;;7.95;2.63;;;27.90;43.00;;;;;;5016896;28;20310;-73
2022/06/15 10:06:32;;;;;;;10.35;2.55;;;28.00;42.60;;;;;;5031705;28;20036;-73
2022/06/15 10:09:01;;;;;;;6.35;1.90;;;28.10;41.80;;;;;;5038130;28;20025;-73
2022/06/15 10:11:33;;;;;;;5.00;2.00;;;28.20;41.70;;;;;;5016294;28;20013;-72
2022/06/15 10:14:31;;;;;;;5.43;1.75;;;28.20;41.20;;;;;;5030925;28;20563;-73
2022/06/15 10:17:17;;;;;;;5.45;1.80;;;28.30;40.80;;;;;;5016298;28;20060;-72
2022/06/15 10:19:47;;;;;;;4.07;2.03;;;28.40;40.90;;;;;;5017408;28;20735;-73
2022/06/15 10:22:25;;;;;;;4.20;1.80;;;28.50;40.70;;;;;;5033562;28;20544;-74
2022/06/15 10:24:53;;;;;;;15.05;2.00;;;28.60;40.30;;;;;;5031149;28;20747;-76
2022/06/15 10:27:24;;;;;;;11.10;2.65;;;28.60;40.10;;;;;;5039130;28;20515;-74
2022/06/15 10:30:22;;;;;;;6.22;2.25;;;28.50;40.00;;;;;;5019229;28;20037;-76
2022/06/15 10:33:12;;;;;;;4.07;2.25;;;28.40;39.80;;;;;;5035440;28;20504;-76
2022/06/15 10:35:38;;;;;;;3.88;2.13;;;28.40;39.70;;;;;;5013940;28;20148;-77
2022/06/15 10:38:11;;;;;;;4.03;2.28;;;28.40;39.90;;;;;;5014915;28;20026;-75
2022/06/15 10:40:48;;;;;;;5.13;2.58;;;28.50;39.80;;;;;;5034074;28;20242;-76
2022/06/15 10:43:14;;;;;;;3.95;2.90;;;28.60;39.90;;;;;;5027228;28;20036;-74
2022/06/15 10:46:01;;;;;;;6.45;2.67;;;28.70;39.90;;;;;;5036942;28;20499;-76
2022/06/15 10:48:44;;;;;;;6.65;3.25;;;28.90;40.00;;;;;;5035721;28;20358;-74
2022/06/15 10:51:29;;;;;;;11.98;3.03;;;29.20;39.80;;;;;;5030023;28;20452;-75
2022/06/15 10:54:14;;;;;;;6.38;2.60;;;29.30;39.80;;;;;;5032580;28;20064;-74
2022/06/15 11:02:28;;;;;;;7.60;3.25;;;29.90;39.50;;;;;;5028888;28;20033;-74
2022/06/15 11:05:09;;;;;;;6.00;2.58;;;30.20;39.20;;;;;;5025140;28;20338;-74
2022/06/15 11:07:47;;;;;;;4.65;2.70;;;30.50;38.90;;;;;;5004861;28;20516;-74
2022/06/15 11:10:32;;;;;;;5.63;2.88;;;30.80;38.60;;;;;;5014903;28;20476;-75
2022/06/15 11:13:03;;;;;;;3.70;2.70;;;31.00;38.10;;;;;;5002712;28;20484;-75
2022/06/15 11:18:33;;;;;;;3.17;1.98;;;31.20;37.70;;;;;;5031432;28;20029;-75
2022/06/15 11:21:06;;;;;;;4.90;2.15;;;31.20;37.50;;;;;;5017008;28;20048;-74
2022/06/15 11:23:47;;;;;;;4.88;2.60;;;31.10;37.50;;;;;;5033093;28;20084;-75
2022/06/15 11:26:52;;;;;;;6.57;2.72;;;31.00;37.20;;;;;;5033702;28;20520;-73
2022/06/15 11:29:24;;;;;;;7.35;3.20;;;31.00;37.00;;;;;;5003888;28;20040;-75
2022/06/15 11:31:53;;;;;;;5.20;2.65;;;31.00;37.10;;;;;;5035647;28;20040;-75
2022/06/15 11:34:24;;;;;;;5.45;2.50;;;31.00;37.10;;;;;;5039048;28;20022;-75
2022/06/15 11:37:03;;;;;;;6.25;3.13;;;31.00;36.80;;;;;;5034204;28;20300;-77
2022/06/15 11:39:59;;;;;;;5.18;2.70;;;30.80;36.50;;;;;;5040477;28;20033;-75
2022/06/15 11:42:25;;;;;;;6.00;2.65;;;30.80;36.50;;;;;;5038413;28;20101;-74
2022/06/15 11:44:51;;;;;;;4.95;2.60;;;30.70;36.70;;;;;;5027365;28;20128;-74
2022/06/15 11:47:30;;;;;;;7.55;1.92;;;30.60;36.60;;;;;;5046805;28;20052;-76
2022/06/15 11:50:11;;;;;;;6.10;1.67;;;30.60;36.20;;;;;;5042605;28;20094;-75
2022/06/15 11:52:41;;;;;;;2.55;1.50;;;30.60;36.20;;;;;;5035002;28;20052;-74
2022/06/15 11:55:30;;;;;;;5.90;1.58;;;30.80;36.20;;;;;;5036259;28;20140;-74
2022/06/15 11:58:33;;;;;;;4.93;1.83;;;30.90;35.30;;;;;;5035816;28;20025;-74
2022/06/15 12:01:23;;;;;;;2.95;1.00;;;30.80;35.00;;;;;;5038460;28;20059;-75
2022/06/15 12:03:49;;;;;;;2.58;0.95;;;30.60;35.30;;;;;;5020294;28;20025;-75
2022/06/15 12:06:21;;;;;;;2.13;1.02;;;30.40;35.40;;;;;;5035527;28;20680;-74
2022/06/15 12:09:23;;;;;;;1.77;0.93;;;30.30;35.10;;;;;;5040281;28;20036;-74
2022/06/15 12:15:31;;;;;;;3.03;1.00;;;30.00;34.60;;;;;;5038711;28;20552;-75
2022/06/15 12:18:12;;;;;;;3.00;1.27;;;30.00;34.40;;;;;;5018031;28;20039;-76
2022/06/15 12:20:49;;;;;;;2.65;1.30;;;30.30;34.20;;;;;;5035970;28;20036;-75
2022/06/15 12:23:33;;;;;;;2.30;1.27;;;30.60;33.60;;;;;;5031437;28;20120;-74
2022/06/15 12:26:12;;;;;;;4.07;1.75;;;30.80;33.20;;;;;;5036630;28;20040;-73
2022/06/15 12:29:04;;;;;;;2.80;1.70;;;30.90;33.00;;;;;;5020408;28;20208;-74
2022/06/15 12:31:40;;;;;;;3.08;2.20;;;31.00;32.80;;;;;;5020805;28;20384;-74
2022/06/15 12:34:14;;;;;;;7.38;2.20;;;31.00;33.20;;;;;;5035045;28;20595;-74
2022/06/15 12:36:50;;;;;;;5.47;2.50;;;30.90;33.30;;;;;;5003887;28;20037;-74
2022/06/15 12:39:34;;;;;;;4.38;1.77;;;30.70;33.20;;;;;;5038526;28;20018;-74
2022/06/15 12:42:10;;;;;;;2.97;1.95;;;30.50;33.30;;;;;;5038609;28;20033;-75
2022/06/15 12:45:05;;;;;;;3.25;2.03;;;30.30;33.70;;;;;;5018531;28;20032;-74
2022/06/15 12:47:34;;;;;;;5.57;2.28;;;30.20;33.40;;;;;;5015150;28;20033;-72
2022/06/15 12:50:37;;;;;;;4.28;1.83;;;30.30;33.60;;;;;;5034278;28;20059;-74
2022/06/15 12:53:24;;;;;;;4.68;2.13;;;30.30;33.20;;;;;;5033066;28;20040;-74
2022/06/15 12:56:12;;;;;;;5.25;2.38;;;30.30;33.40;;;;;;5006689;28;20041;-74
2022/06/15 12:58:59;;;;;;;5.85;3.45;;;30.40;33.40;;;;;;5039655;28;20025;-76
2022/06/15 13:01:43;;;;;;;7.57;2.67;;;30.40;33.60;;;;;;5019065;28;20036;-74
2022/06/15 13:04:12;;;;;;;4.70;2.40;;;30.40;33.80;;;;;;5000151;28;20432;-73
2022/06/15 13:06:41;;;;;;;3.58;1.63;;;30.30;33.90;;;;;;5027407;28;20037;-77
2022/06/15 13:09:18;;;;;;;2.47;1.48;;;30.10;34.00;;;;;;5030567;28;20037;-76
2022/06/15 13:11:51;;;;;;;5.90;1.80;;;29.70;34.20;;;;;;5019323;28;20400;-75
2022/06/15 13:14:22;;;;;;;2.45;1.33;;;29.50;34.60;;;;;;5027163;28;20251;-75
2022/06/15 13:17:14;;;;;;;2.55;1.42;;;29.30;34.80;;;;;;5014874;28;20073;-73
2022/06/15 13:19:41;;;;;;;3.83;1.40;;;29.20;34.90;;;;;;5028826;28;20071;-74
2022/06/15 13:22:23;;;;;;;3.92;1.50;;;29.10;35.00;;;;;;5026397;28;20032;-73
2022/06/15 13:25:03;;;;;;;2.85;1.23;;;29.10;34.80;;;;;;5020839;28;20040;-74
2022/06/15 13:28:08;;;;;;;5.07;1.30;;;29.10;34.80;;;;;;5033199;28;20513;-76
2022/06/15 13:30:54;;;;;;;1.20;0.63;;;29.20;34.90;;;;;;5032596;28;20021;-74
2022/06/15 13:33:41;;;;;;;2.60;0.70;;;29.30;33.90;;;;;;5028248;28;20025;-74
2022/06/15 13:36:10;;;;;;;2.45;1.00;;;29.50;33.70;;;;;;5032435;28;20098;-75
2022/06/15 13:38:37;;;;;;;1.02;0.65;;;29.70;33.10;;;;;;5013591;28;20033;-74